sensor_id;sensor_type;location;lat;lon;timestamp;temperature;humidity
14053;DHT22;7101;51.600;7.310;2023-04-01T00:00:11;9.90;99.90
14053;DHT22;7101;51.600;7.310;2023-04-01T00:02:41;9.90;99.90
14053;DHT22;7101;51.600;7.310;2023-04-01T00:05:13;9.90;99.90
14053;DHT22;7101;51.600;7.310;2023-04-01T00:07:40;9.90;99.90
14053;DHT22;7101;51.600;7.310;2023-04-01T00:10:09;9.90;99.90
14053;DHT22;7101;51.600;7.310;2023-04-01T00:12:51;9.90;99.90
14053;DHT22;7101;51.600;7.310;2023-04-01T00:15:19;9.90;99.90
14053;DHT22;7101;51.600;7.310;2023-04-01T00:17:47;9.80;99.90
14053;DHT22;7101;51.600;7.310;2023-04-01T00:20:15;9.80;99.90
14053;DHT22;7101;51.600;7.310;2023-04-01T00:22:42;9.80;99.90
14053;DHT22;7101;51.600;7.310;2023-04-01T00:25:09;9.90;99.90
14053;DHT22;7101;51.600;7.310;2023-04-01T00:27:36;9.80;99.90
14053;DHT22;7101;51.600;7.310;2023-04-01T00:30:04;9.80;99.90
14053;DHT22;7101;51.600;7.310;2023-04-01T00:32:31;9.80;99.90
14053;DHT22;7101;51.600;7.310;2023-04-01T00:34:59;9.80;99.90
14053;DHT22;7101;51.600;7.310;2023-04-01T00:37:26;9.80;99.90
14053;DHT22;7101;51.600;7.310;2023-04-01T00:39:53;9.70;99.90
14053;DHT22;7101;51.600;7.310;2023-04-01T00:42:20;9.70;99.90
14053;DHT22;7101;51.600;7.310;2023-04-01T00:44:50;9.70;99.90
14053;DHT22;7101;51.600;7.310;2023-04-01T00:47:18;9.70;99.90
14053;DHT22;7101;51.600;7.310;2023-04-01T00:49:48;9.70;99.90
14053;DHT22;7101;51.600;7.310;2023-04-01T00:52:21;9.70;99.90
14053;DHT22;7101;51.600;7.310;2023-04-01T00:54:52;9.70;99.90
14053;DHT22;7101;51.600;7.310;2023-04-01T00:57:25;9.70;99.90
14053;DHT22;7101;51.600;7.310;2023-04-01T00:59:54;9.70;99.90
14053;DHT22;7101;51.600;7.310;2023-04-01T01:02:22;9.70;99.90
14053;DHT22;7101;51.600;7.310;2023-04-01T01:04:49;9.60;99.90
14053;DHT22;7101;51.600;7.310;2023-04-01T01:07:24;9.60;99.90
14053;DHT22;7101;51.600;7.310;2023-04-01T01:10:01;9.60;99.90
14053;DHT22;7101;51.600;7.310;2023-04-01T01:12:33;9.60;99.90
14053;DHT22;7101;51.600;7.310;2023-04-01T01:15:06;9.60;99.90
14053;DHT22;7101;51.600;7.310;2023-04-01T01:17:43;9.60;99.90
14053;DHT22;7101;51.600;7.310;2023-04-01T01:20:34;9.60;99.90
14053;DHT22;7101;51.600;7.310;2023-04-01T01:26:33;9.60;99.90
14053;DHT22;7101;51.600;7.310;2023-04-01T01:29:10;9.60;99.90
14053;DHT22;7101;51.600;7.310;2023-04-01T01:31:44;9.60;99.90
14053;DHT22;7101;51.600;7.310;2023-04-01T01:34:20;9.60;99.90
14053;DHT22;7101;51.600;7.310;2023-04-01T01:36:53;9.60;99.90
14053;DHT22;7101;51.600;7.310;2023-04-01T01:39:23;9.60;99.90
14053;DHT22;7101;51.600;7.310;2023-04-01T01:41:55;9.50;99.90
14053;DHT22;7101;51.600;7.310;2023-04-01T01:44:24;9.60;99.90
14053;DHT22;7101;51.600;7.310;2023-04-01T01:46:56;9.50;99.90
14053;DHT22;7101;51.600;7.310;2023-04-01T01:49:34;9.50;99.90
14053;DHT22;7101;51.600;7.310;2023-04-01T01:52:03;9.60;99.90
14053;DHT22;7101;51.600;7.310;2023-04-01T01:54:32;9.50;99.90
14053;DHT22;7101;51.600;7.310;2023-04-01T01:57:04;9.50;99.90
14053;DHT22;7101;51.600;7.310;2023-04-01T01:59:37;9.50;99.90
14053;DHT22;7101;51.600;7.310;2023-04-01T02:02:05;9.50;99.90
14053;DHT22;7101;51.600;7.310;2023-04-01T02:04:37;9.50;99.90
14053;DHT22;7101;51.600;7.310;2023-04-01T02:07:09;9.40;99.90
14053;DHT22;7101;51.600;7.310;2023-04-01T02:09:40;9.50;99.90
14053;DHT22;7101;51.600;7.310;2023-04-01T02:12:08;9.50;99.90
14053;DHT22;7101;51.600;7.310;2023-04-01T02:14:40;9.50;99.90
14053;DHT22;7101;51.600;7.310;2023-04-01T02:17:10;9.50;99.90
14053;DHT22;7101;51.600;7.310;2023-04-01T02:19:56;9.50;99.90
14053;DHT22;7101;51.600;7.310;2023-04-01T02:22:29;9.50;99.90
14053;DHT22;7101;51.600;7.310;2023-04-01T02:24:59;9.50;99.90
14053;DHT22;7101;51.600;7.310;2023-04-01T02:27:37;9.50;99.90
14053;DHT22;7101;51.600;7.310;2023-04-01T02:30:06;9.50;99.90
14053;DHT22;7101;51.600;7.310;2023-04-01T02:32:35;9.50;99.90
14053;DHT22;7101;51.600;7.310;2023-04-01T02:35:05;9.50;99.90
14053;DHT22;7101;51.600;7.310;2023-04-01T02:37:34;9.50;99.90
14053;DHT22;7101;51.600;7.310;2023-04-01T02:40:01;9.40;99.90
14053;DHT22;7101;51.600;7.310;2023-04-01T02:42:28;9.40;99.90
14053;DHT22;7101;51.600;7.310;2023-04-01T02:44:55;9.40;99.90
14053;DHT22;7101;51.600;7.310;2023-04-01T02:47:22;9.50;99.90
14053;DHT22;7101;51.600;7.310;2023-04-01T02:49:49;9.40;99.90
14053;DHT22;7101;51.600;7.310;2023-04-01T02:52:16;9.40;99.90
14053;DHT22;7101;51.600;7.310;2023-04-01T02:54:44;9.40;99.90
14053;DHT22;7101;51.600;7.310;2023-04-01T02:57:11;9.40;99.90
14053;DHT22;7101;51.600;7.310;2023-04-01T02:59:37;9.30;99.90
14053;DHT22;7101;51.600;7.310;2023-04-01T03:02:06;9.40;99.90
14053;DHT22;7101;51.600;7.310;2023-04-01T03:04:40;9.40;99.90
14053;DHT22;7101;51.600;7.310;2023-04-01T03:07:07;9.40;99.90
14053;DHT22;7101;51.600;7.310;2023-04-01T03:09:45;9.40;99.90
14053;DHT22;7101;51.600;7.310;2023-04-01T03:12:13;9.40;99.90
14053;DHT22;7101;51.600;7.310;2023-04-01T03:14:52;9.40;99.90
14053;DHT22;7101;51.600;7.310;2023-04-01T03:17:18;9.40;99.90
14053;DHT22;7101;51.600;7.310;2023-04-01T03:19:51;9.30;99.90
14053;DHT22;7101;51.600;7.310;2023-04-01T03:22:24;9.30;99.90
14053;DHT22;7101;51.600;7.310;2023-04-01T03:24:54;9.30;99.90
14053;DHT22;7101;51.600;7.310;2023-04-01T03:27:21;9.30;99.90
14053;DHT22;7101;51.600;7.310;2023-04-01T03:29:48;9.30;99.90
14053;DHT22;7101;51.600;7.310;2023-04-01T03:32:15;9.30;99.90
14053;DHT22;7101;51.600;7.310;2023-04-01T03:34:43;9.30;99.90
14053;DHT22;7101;51.600;7.310;2023-04-01T03:37:10;9.30;99.90
14053;DHT22;7101;51.600;7.310;2023-04-01T03:39:36;9.20;99.90
14053;DHT22;7101;51.600;7.310;2023-04-01T03:42:05;9.30;99.90
14053;DHT22;7101;51.600;7.310;2023-04-01T03:44:32;9.20;99.90
14053;DHT22;7101;51.600;7.310;2023-04-01T03:46:59;9.30;99.90
14053;DHT22;7101;51.600;7.310;2023-04-01T03:49:26;9.20;99.90
14053;DHT22;7101;51.600;7.310;2023-04-01T03:51:53;9.20;99.90
14053;DHT22;7101;51.600;7.310;2023-04-01T03:54:20;9.30;99.90
14053;DHT22;7101;51.600;7.310;2023-04-01T03:56:47;9.30;99.90
14053;DHT22;7101;51.600;7.310;2023-04-01T03:59:15;9.30;99.90
14053;DHT22;7101;51.600;7.310;2023-04-01T04:01:42;9.40;99.90
14053;DHT22;7101;51.600;7.310;2023-04-01T04:04:11;9.30;99.90
14053;DHT22;7101;51.600;7.310;2023-04-01T04:06:38;9.30;99.90
14053;DHT22;7101;51.600;7.310;2023-04-01T04:09:06;9.40;99.90
14053;DHT22;7101;51.600;7.310;2023-04-01T04:11:33;9.30;99.90
14053;DHT22;7101;51.600;7.310;2023-04-01T04:14:00;9.40;99.90
14053;DHT22;7101;51.600;7.310;2023-04-01T04:16:34;9.30;99.90
14053;DHT22;7101;51.600;7.310;2023-04-01T04:19:02;9.40;99.90
14053;DHT22;7101;51.600;7.310;2023-04-01T04:21:29;9.40;99.90
14053;DHT22;7101;51.600;7.310;2023-04-01T04:24:00;9.30;99.90
14053;DHT22;7101;51.600;7.310;2023-04-01T04:26:28;9.40;99.90
14053;DHT22;7101;51.600;7.310;2023-04-01T04:28:55;9.40;99.90
14053;DHT22;7101;51.600;7.310;2023-04-01T04:31:24;9.30;99.90
14053;DHT22;7101;51.600;7.310;2023-04-01T04:33:53;9.30;99.90
14053;DHT22;7101;51.600;7.310;2023-04-01T04:36:21;9.40;99.90
14053;DHT22;7101;51.600;7.310;2023-04-01T04:38:48;9.40;99.90
14053;DHT22;7101;51.600;7.310;2023-04-01T04:41:17;9.40;99.90
14053;DHT22;7101;51.600;7.310;2023-04-01T04:43:50;9.40;99.90
14053;DHT22;7101;51.600;7.310;2023-04-01T04:46:17;9.40;99.90
14053;DHT22;7101;51.600;7.310;2023-04-01T04:48:44;9.30;99.90
14053;DHT22;7101;51.600;7.310;2023-04-01T04:51:14;9.40;99.90
14053;DHT22;7101;51.600;7.310;2023-04-01T04:53:42;9.30;99.90
14053;DHT22;7101;51.600;7.310;2023-04-01T04:56:09;9.40;99.90
14053;DHT22;7101;51.600;7.310;2023-04-01T04:58:36;9.40;99.90
14053;DHT22;7101;51.600;7.310;2023-04-01T05:01:06;9.30;99.90
14053;DHT22;7101;51.600;7.310;2023-04-01T05:03:33;9.30;99.90
14053;DHT22;7101;51.600;7.310;2023-04-01T05:06:01;9.40;99.90
14053;DHT22;7101;51.600;7.310;2023-04-01T05:08:30;9.40;99.90
14053;DHT22;7101;51.600;7.310;2023-04-01T05:10:58;9.50;99.90
14053;DHT22;7101;51.600;7.310;2023-04-01T05:13:25;9.40;99.90
14053;DHT22;7101;51.600;7.310;2023-04-01T05:15:52;9.40;99.90
14053;DHT22;7101;51.600;7.310;2023-04-01T05:18:19;9.40;99.90
14053;DHT22;7101;51.600;7.310;2023-04-01T05:20:47;9.40;99.90
14053;DHT22;7101;51.600;7.310;2023-04-01T05:23:14;9.40;99.90
14053;DHT22;7101;51.600;7.310;2023-04-01T05:25:42;9.50;99.90
14053;DHT22;7101;51.600;7.310;2023-04-01T05:28:10;9.40;99.90
14053;DHT22;7101;51.600;7.310;2023-04-01T05:30:40;9.40;99.90
14053;DHT22;7101;51.600;7.310;2023-04-01T05:33:07;9.50;99.90
14053;DHT22;7101;51.600;7.310;2023-04-01T05:35:36;9.50;99.90
14053;DHT22;7101;51.600;7.310;2023-04-01T05:38:03;9.50;99.90
14053;DHT22;7101;51.600;7.310;2023-04-01T05:40:31;9.50;99.90
14053;DHT22;7101;51.600;7.310;2023-04-01T05:42:59;9.60;99.90
14053;DHT22;7101;51.600;7.310;2023-04-01T05:45:26;9.60;99.90
14053;DHT22;7101;51.600;7.310;2023-04-01T05:47:53;9.60;99.90
14053;DHT22;7101;51.600;7.310;2023-04-01T05:50:20;9.60;99.90
14053;DHT22;7101;51.600;7.310;2023-04-01T05:52:47;9.70;99.90
14053;DHT22;7101;51.600;7.310;2023-04-01T05:55:14;9.60;99.90
14053;DHT22;7101;51.600;7.310;2023-04-01T05:57:41;9.60;99.90
14053;DHT22;7101;51.600;7.310;2023-04-01T06:00:11;9.70;99.90
14053;DHT22;7101;51.600;7.310;2023-04-01T06:02:38;9.60;99.90
14053;DHT22;7101;51.600;7.310;2023-04-01T06:05:13;9.70;99.90
14053;DHT22;7101;51.600;7.310;2023-04-01T06:07:40;9.60;99.90
14053;DHT22;7101;51.600;7.310;2023-04-01T06:10:13;9.70;99.90
14053;DHT22;7101;51.600;7.310;2023-04-01T06:12:56;9.70;99.90
14053;DHT22;7101;51.600;7.310;2023-04-01T06:15:36;9.70;99.90
14053;DHT22;7101;51.600;7.310;2023-04-01T06:18:29;9.80;99.90
14053;DHT22;7101;51.600;7.310;2023-04-01T06:21:04;9.80;99.90
14053;DHT22;7101;51.600;7.310;2023-04-01T06:23:50;9.70;99.90
14053;DHT22;7101;51.600;7.310;2023-04-01T06:26:25;9.70;99.90
14053;DHT22;7101;51.600;7.310;2023-04-01T06:29:20;9.80;99.90
14053;DHT22;7101;51.600;7.310;2023-04-01T06:32:18;9.90;99.90
14053;DHT22;7101;51.600;7.310;2023-04-01T06:34:59;10.00;99.90
14053;DHT22;7101;51.600;7.310;2023-04-01T06:37:44;10.00;99.90
14053;DHT22;7101;51.600;7.310;2023-04-01T06:40:44;10.00;99.90
14053;DHT22;7101;51.600;7.310;2023-04-01T06:43:20;9.90;99.90
14053;DHT22;7101;51.600;7.310;2023-04-01T06:45:53;9.90;99.90
14053;DHT22;7101;51.600;7.310;2023-04-01T06:48:36;9.90;99.90
14053;DHT22;7101;51.600;7.310;2023-04-01T06:51:16;9.80;99.90
14053;DHT22;7101;51.600;7.310;2023-04-01T06:53:56;9.80;99.90
14053;DHT22;7101;51.600;7.310;2023-04-01T06:56:26;9.90;99.90
14053;DHT22;7101;51.600;7.310;2023-04-01T06:58:58;9.90;99.90
14053;DHT22;7101;51.600;7.310;2023-04-01T07:01:31;9.90;99.90
14053;DHT22;7101;51.600;7.310;2023-04-01T07:04:05;9.80;99.90
14053;DHT22;7101;51.600;7.310;2023-04-01T07:06:36;9.90;99.90
14053;DHT22;7101;51.600;7.310;2023-04-01T07:09:08;9.90;99.90
14053;DHT22;7101;51.600;7.310;2023-04-01T07:11:41;9.90;99.90
14053;DHT22;7101;51.600;7.310;2023-04-01T07:14:15;9.90;99.90
14053;DHT22;7101;51.600;7.310;2023-04-01T07:16:46;9.90;99.90
14053;DHT22;7101;51.600;7.310;2023-04-01T07:19:29;9.90;99.90
14053;DHT22;7101;51.600;7.310;2023-04-01T07:22:00;9.80;99.90
14053;DHT22;7101;51.600;7.310;2023-04-01T07:24:32;9.80;99.90
14053;DHT22;7101;51.600;7.310;2023-04-01T07:27:03;9.90;99.90
14053;DHT22;7101;51.600;7.310;2023-04-01T07:29:31;9.90;99.90
14053;DHT22;7101;51.600;7.310;2023-04-01T07:32:18;9.80;99.90
14053;DHT22;7101;51.600;7.310;2023-04-01T07:35:02;9.90;99.90
14053;DHT22;7101;51.600;7.310;2023-04-01T07:37:34;10.00;99.90
14053;DHT22;7101;51.600;7.310;2023-04-01T07:40:11;9.90;99.90
14053;DHT22;7101;51.600;7.310;2023-04-01T07:43:04;10.10;99.90
14053;DHT22;7101;51.600;7.310;2023-04-01T07:45:38;10.00;99.90
14053;DHT22;7101;51.600;7.310;2023-04-01T07:48:15;10.10;99.90
14053;DHT22;7101;51.600;7.310;2023-04-01T07:50:51;10.10;99.90
14053;DHT22;7101;51.600;7.310;2023-04-01T07:53:22;10.00;99.90
14053;DHT22;7101;51.600;7.310;2023-04-01T07:55:59;10.10;99.90
14053;DHT22;7101;51.600;7.310;2023-04-01T07:58:35;10.20;99.90
14053;DHT22;7101;51.600;7.310;2023-04-01T08:01:10;10.20;99.90
14053;DHT22;7101;51.600;7.310;2023-04-01T08:03:55;10.30;99.90
14053;DHT22;7101;51.600;7.310;2023-04-01T08:06:35;10.30;99.90
14053;DHT22;7101;51.600;7.310;2023-04-01T08:09:07;10.30;99.90
14053;DHT22;7101;51.600;7.310;2023-04-01T08:11:45;10.20;99.90
14053;DHT22;7101;51.600;7.310;2023-04-01T08:14:22;10.40;99.90
14053;DHT22;7101;51.600;7.310;2023-04-01T08:16:56;10.40;99.90
14053;DHT22;7101;51.600;7.310;2023-04-01T08:19:33;10.40;99.90
14053;DHT22;7101;51.600;7.310;2023-04-01T08:22:11;10.40;99.90
14053;DHT22;7101;51.600;7.310;2023-04-01T08:24:42;10.40;99.90
14053;DHT22;7101;51.600;7.310;2023-04-01T08:27:12;10.30;99.90
14053;DHT22;7101;51.600;7.310;2023-04-01T08:29:48;10.30;99.90
14053;DHT22;7101;51.600;7.310;2023-04-01T08:32:20;10.30;99.90
14053;DHT22;7101;51.600;7.310;2023-04-01T08:34:57;10.30;99.90
14053;DHT22;7101;51.600;7.310;2023-04-01T08:37:32;10.40;99.90
14053;DHT22;7101;51.600;7.310;2023-04-01T08:40:25;10.30;99.90
14053;DHT22;7101;51.600;7.310;2023-04-01T08:43:04;10.20;99.90
14053;DHT22;7101;51.600;7.310;2023-04-01T08:45:53;10.30;99.90
14053;DHT22;7101;51.600;7.310;2023-04-01T08:48:36;10.20;99.90
14053;DHT22;7101;51.600;7.310;2023-04-01T08:57:15;10.30;99.90
14053;DHT22;7101;51.600;7.310;2023-04-01T08:59:56;10.30;99.90
14053;DHT22;7101;51.600;7.310;2023-04-01T09:02:56;10.30;99.90
14053;DHT22;7101;51.600;7.310;2023-04-01T09:08:33;10.30;99.90
14053;DHT22;7101;51.600;7.310;2023-04-01T09:11:27;10.30;99.90
14053;DHT22;7101;51.600;7.310;2023-04-01T09:14:07;10.40;99.90
14053;DHT22;7101;51.600;7.310;2023-04-01T09:17:01;10.40;99.90
14053;DHT22;7101;51.600;7.310;2023-04-01T09:19:46;10.30;99.90
14053;DHT22;7101;51.600;7.310;2023-04-01T09:22:32;10.30;99.90
14053;DHT22;7101;51.600;7.310;2023-04-01T09:28:05;10.20;99.90
14053;DHT22;7101;51.600;7.310;2023-04-01T09:31:15;10.30;99.90
14053;DHT22;7101;51.600;7.310;2023-04-01T09:34:05;10.30;99.90
14053;DHT22;7101;51.600;7.310;2023-04-01T09:36:45;10.30;99.90
14053;DHT22;7101;51.600;7.310;2023-04-01T09:39:31;10.30;99.90
14053;DHT22;7101;51.600;7.310;2023-04-01T09:42:14;10.40;99.90
14053;DHT22;7101;51.600;7.310;2023-04-01T09:44:51;10.40;99.90
14053;DHT22;7101;51.600;7.310;2023-04-01T09:47:35;10.40;99.90
14053;DHT22;7101;51.600;7.310;2023-04-01T09:50:34;10.30;99.90
14053;DHT22;7101;51.600;7.310;2023-04-01T09:53:12;10.30;99.90
14053;DHT22;7101;51.600;7.310;2023-04-01T09:56:14;10.50;99.90
14053;DHT22;7101;51.600;7.310;2023-04-01T09:59:24;10.50;99.90
14053;DHT22;7101;51.600;7.310;2023-04-01T10:05:19;10.50;99.90
14053;DHT22;7101;51.600;7.310;2023-04-01T10:08:12;10.60;99.90
14053;DHT22;7101;51.600;7.310;2023-04-01T10:11:22;10.70;99.90
14053;DHT22;7101;51.600;7.310;2023-04-01T10:14:22;10.80;99.90
14053;DHT22;7101;51.600;7.310;2023-04-01T10:17:21;10.90;99.90
14053;DHT22;7101;51.600;7.310;2023-04-01T10:20:00;10.90;99.90
14053;DHT22;7101;51.600;7.310;2023-04-01T10:22:49;10.90;99.90
14053;DHT22;7101;51.600;7.310;2023-04-01T10:28:42;11.00;99.90
14053;DHT22;7101;51.600;7.310;2023-04-01T10:31:41;11.20;99.90
14053;DHT22;7101;51.600;7.310;2023-04-01T10:37:47;11.10;99.90
14053;DHT22;7101;51.600;7.310;2023-04-01T10:40:37;10.90;99.90
14053;DHT22;7101;51.600;7.310;2023-04-01T10:49:43;11.00;99.90
14053;DHT22;7101;51.600;7.310;2023-04-01T10:55:40;10.80;99.90
14053;DHT22;7101;51.600;7.310;2023-04-01T10:58:45;10.90;99.90
14053;DHT22;7101;51.600;7.310;2023-04-01T11:01:36;11.00;99.90
14053;DHT22;7101;51.600;7.310;2023-04-01T11:04:33;11.00;99.90
14053;DHT22;7101;51.600;7.310;2023-04-01T11:13:40;11.20;99.90
14053;DHT22;7101;51.600;7.310;2023-04-01T11:22:43;11.20;99.90
14053;DHT22;7101;51.600;7.310;2023-04-01T11:31:19;11.20;99.90
14053;DHT22;7101;51.600;7.310;2023-04-01T11:33:53;11.40;99.90
14053;DHT22;7101;51.600;7.310;2023-04-01T11:36:32;11.40;99.90
14053;DHT22;7101;51.600;7.310;2023-04-01T11:39:14;11.40;99.90
14053;DHT22;7101;51.600;7.310;2023-04-01T11:41:51;11.50;99.90
14053;DHT22;7101;51.600;7.310;2023-04-01T11:44:21;11.60;99.90
14053;DHT22;7101;51.600;7.310;2023-04-01T11:47:00;11.60;99.90
14053;DHT22;7101;51.600;7.310;2023-04-01T11:49:42;11.40;99.90
14053;DHT22;7101;51.600;7.310;2023-04-01T11:52:32;11.30;99.90
14053;DHT22;7101;51.600;7.310;2023-04-01T11:55:23;11.30;99.90
14053;DHT22;7101;51.600;7.310;2023-04-01T11:58:11;11.20;99.90
14053;DHT22;7101;51.600;7.310;2023-04-01T12:01:04;11.20;99.90
14053;DHT22;7101;51.600;7.310;2023-04-01T12:06:43;11.20;99.90
14053;DHT22;7101;51.600;7.310;2023-04-01T12:09:18;11.10;99.90
14053;DHT22;7101;51.600;7.310;2023-04-01T12:11:56;11.10;99.90
14053;DHT22;7101;51.600;7.310;2023-04-01T12:14:36;11.10;99.90
14053;DHT22;7101;51.600;7.310;2023-04-01T12:17:13;11.10;99.90
14053;DHT22;7101;51.600;7.310;2023-04-01T12:19:54;11.10;99.90
14053;DHT22;7101;51.600;7.310;2023-04-01T12:22:38;11.10;99.90
14053;DHT22;7101;51.600;7.310;2023-04-01T12:25:23;11.00;99.90
14053;DHT22;7101;51.600;7.310;2023-04-01T12:28:02;11.00;99.90
14053;DHT22;7101;51.600;7.310;2023-04-01T12:30:42;10.90;99.90
14053;DHT22;7101;51.600;7.310;2023-04-01T12:33:56;11.00;99.90
14053;DHT22;7101;51.600;7.310;2023-04-01T12:36:43;11.00;99.90
14053;DHT22;7101;51.600;7.310;2023-04-01T12:39:22;11.00;99.90
14053;DHT22;7101;51.600;7.310;2023-04-01T12:42:02;11.00;99.90
14053;DHT22;7101;51.600;7.310;2023-04-01T12:44:47;11.00;99.90
14053;DHT22;7101;51.600;7.310;2023-04-01T12:47:31;11.10;99.90
14053;DHT22;7101;51.600;7.310;2023-04-01T12:50:31;11.10;99.90
14053;DHT22;7101;51.600;7.310;2023-04-01T12:53:27;11.10;99.90
14053;DHT22;7101;51.600;7.310;2023-04-01T12:55:59;11.10;99.90
14053;DHT22;7101;51.600;7.310;2023-04-01T12:58:59;11.00;99.90
14053;DHT22;7101;51.600;7.310;2023-04-01T13:01:59;11.10;99.90
14053;DHT22;7101;51.600;7.310;2023-04-01T13:04:47;11.30;99.90
14053;DHT22;7101;51.600;7.310;2023-04-01T13:07:52;11.40;99.90
14053;DHT22;7101;51.600;7.310;2023-04-01T13:10:53;11.70;99.90
14053;DHT22;7101;51.600;7.310;2023-04-01T13:16:29;11.90;99.90
14053;DHT22;7101;51.600;7.310;2023-04-01T13:19:01;12.00;99.90
14053;DHT22;7101;51.600;7.310;2023-04-01T13:21:42;11.80;99.90
14053;DHT22;7101;51.600;7.310;2023-04-01T13:24:19;11.90;99.90
14053;DHT22;7101;51.600;7.310;2023-04-01T13:26:55;11.80;99.90
14053;DHT22;7101;51.600;7.310;2023-04-01T13:29:27;11.60;99.90
14053;DHT22;7101;51.600;7.310;2023-04-01T13:32:10;11.50;99.90
14053;DHT22;7101;51.600;7.310;2023-04-01T13:34:51;11.30;99.90
14053;DHT22;7101;51.600;7.310;2023-04-01T13:37:34;11.20;99.90
14053;DHT22;7101;51.600;7.310;2023-04-01T13:40:28;11.20;99.90
14053;DHT22;7101;51.600;7.310;2023-04-01T13:43:04;11.20;99.90
14053;DHT22;7101;51.600;7.310;2023-04-01T13:45:42;11.20;99.90
14053;DHT22;7101;51.600;7.310;2023-04-01T13:48:33;11.10;99.90
14053;DHT22;7101;51.600;7.310;2023-04-01T13:51:42;11.20;99.90
14053;DHT22;7101;51.600;7.310;2023-04-01T13:54:37;11.40;99.90
14053;DHT22;7101;51.600;7.310;2023-04-01T13:57:33;11.30;99.90
14053;DHT22;7101;51.600;7.310;2023-04-01T14:00:19;11.10;99.90
14053;DHT22;7101;51.600;7.310;2023-04-01T14:05:53;11.00;99.90
14053;DHT22;7101;51.600;7.310;2023-04-01T14:08:34;11.00;99.90
14053;DHT22;7101;51.600;7.310;2023-04-01T14:11:10;11.00;99.90
14053;DHT22;7101;51.600;7.310;2023-04-01T14:13:47;10.90;99.90
14053;DHT22;7101;51.600;7.310;2023-04-01T14:19:38;10.90;99.90
14053;DHT22;7101;51.600;7.310;2023-04-01T14:22:16;11.00;99.90
14053;DHT22;7101;51.600;7.310;2023-04-01T14:25:03;11.00;99.90
14053;DHT22;7101;51.600;7.310;2023-04-01T14:27:56;11.00;99.90
14053;DHT22;7101;51.600;7.310;2023-04-01T14:30:41;11.00;99.90
14053;DHT22;7101;51.600;7.310;2023-04-01T14:33:26;10.90;99.90
14053;DHT22;7101;51.600;7.310;2023-04-01T14:36:11;11.00;99.90
14053;DHT22;7101;51.600;7.310;2023-04-01T14:38:54;11.00;99.90
14053;DHT22;7101;51.600;7.310;2023-04-01T14:41:30;10.90;99.90
14053;DHT22;7101;51.600;7.310;2023-04-01T14:44:18;11.00;99.90
14053;DHT22;7101;51.600;7.310;2023-04-01T14:47:15;10.90;99.90
14053;DHT22;7101;51.600;7.310;2023-04-01T14:49:52;11.10;99.90
14053;DHT22;7101;51.600;7.310;2023-04-01T14:52:28;11.00;99.90
14053;DHT22;7101;51.600;7.310;2023-04-01T14:54:57;11.00;99.90
14053;DHT22;7101;51.600;7.310;2023-04-01T14:57:26;11.10;99.90
14053;DHT22;7101;51.600;7.310;2023-04-01T14:59:58;11.20;99.90
14053;DHT22;7101;51.600;7.310;2023-04-01T15:02:43;11.30;99.90
14053;DHT22;7101;51.600;7.310;2023-04-01T15:05:24;11.30;99.90
14053;DHT22;7101;51.600;7.310;2023-04-01T15:08:17;11.30;99.90
14053;DHT22;7101;51.600;7.310;2023-04-01T15:11:14;11.30;99.90
14053;DHT22;7101;51.600;7.310;2023-04-01T15:16:55;11.10;99.90
14053;DHT22;7101;51.600;7.310;2023-04-01T15:19:35;11.20;99.90
14053;DHT22;7101;51.600;7.310;2023-04-01T15:22:27;11.10;99.90
14053;DHT22;7101;51.600;7.310;2023-04-01T15:25:06;11.10;99.90
14053;DHT22;7101;51.600;7.310;2023-04-01T15:27:40;11.10;99.90
14053;DHT22;7101;51.600;7.310;2023-04-01T15:30:20;11.10;99.90
14053;DHT22;7101;51.600;7.310;2023-04-01T15:33:01;11.10;99.90
14053;DHT22;7101;51.600;7.310;2023-04-01T15:35:39;11.20;99.90
14053;DHT22;7101;51.600;7.310;2023-04-01T15:38:14;11.10;99.90
14053;DHT22;7101;51.600;7.310;2023-04-01T15:40:53;11.10;99.90
14053;DHT22;7101;51.600;7.310;2023-04-01T15:43:31;11.10;99.90
14053;DHT22;7101;51.600;7.310;2023-04-01T15:46:14;11.10;99.90
14053;DHT22;7101;51.600;7.310;2023-04-01T15:48:55;11.00;99.90
14053;DHT22;7101;51.600;7.310;2023-04-01T15:51:34;11.10;99.90
14053;DHT22;7101;51.600;7.310;2023-04-01T15:57:29;11.10;99.90
14053;DHT22;7101;51.600;7.310;2023-04-01T16:00:26;11.00;99.90
14053;DHT22;7101;51.600;7.310;2023-04-01T16:03:18;11.00;99.90
14053;DHT22;7101;51.600;7.310;2023-04-01T16:06:00;11.00;99.90
14053;DHT22;7101;51.600;7.310;2023-04-01T16:08:51;11.00;99.90
14053;DHT22;7101;51.600;7.310;2023-04-01T16:11:26;10.90;99.90
14053;DHT22;7101;51.600;7.310;2023-04-01T16:14:07;10.90;99.90
14053;DHT22;7101;51.600;7.310;2023-04-01T16:16:48;10.90;99.90
14053;DHT22;7101;51.600;7.310;2023-04-01T16:22:14;10.90;99.90
14053;DHT22;7101;51.600;7.310;2023-04-01T16:24:48;10.90;99.90
14053;DHT22;7101;51.600;7.310;2023-04-01T16:27:19;10.90;99.90
14053;DHT22;7101;51.600;7.310;2023-04-01T16:29:56;10.90;99.90
14053;DHT22;7101;51.600;7.310;2023-04-01T16:32:31;10.90;99.90
14053;DHT22;7101;51.600;7.310;2023-04-01T16:35:35;10.90;99.90
14053;DHT22;7101;51.600;7.310;2023-04-01T16:38:08;10.90;99.90
14053;DHT22;7101;51.600;7.310;2023-04-01T16:40:43;10.80;99.90
14053;DHT22;7101;51.600;7.310;2023-04-01T16:43:19;10.80;99.90
14053;DHT22;7101;51.600;7.310;2023-04-01T16:48:52;10.80;99.90
14053;DHT22;7101;51.600;7.310;2023-04-01T16:51:24;10.80;99.90
14053;DHT22;7101;51.600;7.310;2023-04-01T16:54:02;10.80;99.90
14053;DHT22;7101;51.600;7.310;2023-04-01T16:56:39;10.80;99.90
14053;DHT22;7101;51.600;7.310;2023-04-01T16:59:14;10.70;99.90
14053;DHT22;7101;51.600;7.310;2023-04-01T17:01:48;10.70;99.90
14053;DHT22;7101;51.600;7.310;2023-04-01T17:04:25;10.60;99.90
14053;DHT22;7101;51.600;7.310;2023-04-01T17:07:01;10.70;99.90
14053;DHT22;7101;51.600;7.310;2023-04-01T17:09:53;10.70;99.90
14053;DHT22;7101;51.600;7.310;2023-04-01T17:12:29;10.70;99.90
14053;DHT22;7101;51.600;7.310;2023-04-01T17:15:12;10.70;99.90
14053;DHT22;7101;51.600;7.310;2023-04-01T17:17:50;10.60;99.90
14053;DHT22;7101;51.600;7.310;2023-04-01T17:20:35;10.70;99.90
14053;DHT22;7101;51.600;7.310;2023-04-01T17:23:13;10.70;99.90
14053;DHT22;7101;51.600;7.310;2023-04-01T17:26:04;10.70;99.90
14053;DHT22;7101;51.600;7.310;2023-04-01T17:28:41;10.80;99.90
14053;DHT22;7101;51.600;7.310;2023-04-01T17:31:21;10.70;99.90
14053;DHT22;7101;51.600;7.310;2023-04-01T17:34:17;10.70;99.90
14053;DHT22;7101;51.600;7.310;2023-04-01T17:36:59;10.70;99.90
14053;DHT22;7101;51.600;7.310;2023-04-01T17:39:46;10.70;99.90
14053;DHT22;7101;51.600;7.310;2023-04-01T17:42:28;10.70;99.90
14053;DHT22;7101;51.600;7.310;2023-04-01T17:45:03;10.70;99.90
14053;DHT22;7101;51.600;7.310;2023-04-01T17:47:52;10.70;99.90
14053;DHT22;7101;51.600;7.310;2023-04-01T17:50:28;10.70;99.90
14053;DHT22;7101;51.600;7.310;2023-04-01T17:53:11;10.70;99.90
14053;DHT22;7101;51.600;7.310;2023-04-01T17:55:53;10.60;99.90
14053;DHT22;7101;51.600;7.310;2023-04-01T17:58:29;10.70;99.90
14053;DHT22;7101;51.600;7.310;2023-04-01T18:01:08;10.60;99.90
14053;DHT22;7101;51.600;7.310;2023-04-01T18:03:59;10.70;99.90
14053;DHT22;7101;51.600;7.310;2023-04-01T18:06:38;10.70;99.90
14053;DHT22;7101;51.600;7.310;2023-04-01T18:09:17;10.70;99.90
14053;DHT22;7101;51.600;7.310;2023-04-01T18:11:57;10.70;99.90
14053;DHT22;7101;51.600;7.310;2023-04-01T18:14:51;10.80;99.90